WEATHER DATA

YESTERDAY
Time Temp. Dewp. Hum. Bar.
03:33 -3.5 -3.5 100 989.9
03:42 -3.4 -3.4 100 989.8
03:52 -3.3 -3.3 100 989.6
04:03 -3.2 -3.2 100 989.6
04:08 -3.2 -3.2 100 989.4
04:21 -3.1 -3.2 99 989.4
04:32 -3.1 -3.2 99 989.5
04:33 -3.1 -3.2 99 989.5
05:03 -2.7 -2.8 99 989.4
05:13 -2.6 -2.7 99 989.5
05:21 -2.6 -2.7 99 989.6
05:32 -2.5 -2.6 99 989.6
05:37 -2.5 -2.6 99 989.7
06:00 -2.5 -2.6 99 989.9
06:12 -2.5 -2.6 99 990
06:20 -2.5 -2.6 99 990.1
06:33 -2.6 -2.7 99 990.3
06:43 -2.6 -2.7 99 990.4
06:54 -2.6 -2.7 99 990.4
07:03 -2.6 -2.7 99 990.5
07:13 -2.5 -2.6 99 990.5
07:22 -2.5 -2.6 99 990.6
07:34 -2.4 -2.5 99 990.8
07:43 -2.4 -2.5 99 991
07:49 -2.4 -2.5 99 991.3
08:04 -2.4 -2.5 99 991.5
08:14 -2.5 -2.6 99 991.7
08:24 -2.5 -2.6 99 991.9
08:34 -2.5 -2.6 99 992
08:44 -2.5 -2.6 99 992.1
08:54 -2.6 -2.7 99 992.4
09:04 -2.6 -2.7 99 992.5
09:15 -2.6 -2.7 99 992.7
09:21 -2.6 -2.7 99 992.6
09:34 -2.6 -2.7 99 992.9
09:44 -2.7 -2.8 99 992.8
09:53 -2.8 -2.9 99 992.9
10:03 -2.8 -2.9 99 993.1
10:15 -2.9 -3 99 993
10:24 -2.9 -3 99 993.2
10:33 -3 -3.1 99 993.4
10:54 -3.2 -3.3 99 993.6
11:05 -3.3 -3.4 99 993.5
11:10 -3.3 -3.4 99 993.9
11:57 -3.4 -3.5 99 993.9
12:14 -3.4 -3.5 99 993.9
13:38 -3.3 -3.4 99 993.7
13:43 -3.3 -3.4 99 993.7
13:58 -3.3 -3.4 99 993.7
14:08 -3.3 -3.4 99 993.7
14:18 -3.4 -3.5 99 993.8
14:28 -3.4 -3.5 99 994
14:38 -3.4 -3.5 99 994
14:41 -3.4 -3.5 99 994.1
14:52 -3.5 -3.6 99 994.2
15:03 -3.6 -3.7 99 994.2
15:16 -3.6 -3.7 99 994.2
15:29 -3.6 -3.7 99 994.1
15:34 -3.6 -3.7 99 994
15:48 -3.7 -3.8 99 994.1
15:56 -3.7 -3.8 99 994
16:08 -3.7 -3.8 99 994
16:17 -3.7 -3.8 99 994.1
16:27 -3.7 -3.8 99 994.3
17:30 -3.8 -3.9 99 994.5
17:36 -3.8 -3.9 99 994.7
17:47 -3.8 -3.9 99 994.9
18:16 -3.9 -4 99 995
18:51 -3.9 -4 99 994.9
19:01 -3.9 -4 99 995
19:03 -3.9 -4 99 995.1
19:21 -3.9 -4 99 995.1
19:29 -3.9 -4 99 995.3
20:13 -3.9 -4 99 995.2
20:22 -3.9 -4 99 995.2
20:32 -3.8 -3.9 99 995.5
20:36 -3.8 -3.9 99 995.5

DAY STATISTIC

2021-01-24
TEMPERATURE
AVERAGE
-3.1
HIGH
-2.4
07:34
LOW
-3.9
18:16
PRESSURE
AVERAGE
992.6
HIGH
995.5
20:32
LOW
989.4
04:08
DEWPOINT
AVERAGE
-3.2
HIGH
-2.5
07:34
LOW
-4.0
18:16
HUMIDITY
AVERAGE
99
HIGH
100
03:33
LOW
99
04:21
TEMPERATURE (°C)
LOW
-3.9
HIGH
-2.4
AVERAGE
-3.1
PRESSURE (hpa)
LOW
989.4
HIGH
995.5
AVERAGE
992.6
DEVICE